Terminal Aerodrome Forecast
Issued by NWS Upton, NY

Home | Current Version | Previous Version | Text Only | Print | Product List | Glossary On
Versions: 1 2 3 4 5 6 7 8 9 10 11 12 13 14 15 16 17 18 19 20 21 22 23 24 25 26 27 28 29 30 31 32 33 34
815
FTUS41 KOKX 310846 AAA
TAFLGA
TAF AMD
KLGA 310846Z 3109/0106 22006KT P6SM BKN015
      TEMPO 3110/3112 OVC009
     FM311200 VRB05KT P6SM SCT015 SCT070
     FM311500 05007KT P6SM SCT035 SCT070
     FM311700 05007KT P6SM SCT050
     FM312100 19008KT P6SM FEW080
     FM010100 VRB04KT P6SM FEW080=

USA.gov is the U.S. government's official web portal to all federal, state and local government web resources and services.